Terminal Aerodrome Forecast
Issued by NWS Los Angeles, CA

Home | Current Version | Previous Version | Text Only | Print | Product List | Glossary On
Versions: 1 2 3 4 5 6 7 8 9 10 11 12 13 14 15 16 17 18 19 20 21 22 23 24 25
000
FTUS46 KLOX 251740
TAFSMX
TAF
KSMX 251740Z 2518/2618 VRB05KT P6SM OVC015
     FM252000 30012KT P6SM SCT015
     FM260300 30008KT P6SM BKN012
     FM260800 VRB03KT P6SM OVC008=

USA.gov is the U.S. government's official web portal to all federal, state and local government web resources and services.